Time;durP1;ratioP1;P1;durP2;ratioP2;P2;SDS_P1;SDS_P2;PMS_P1;PMS_P2;Temp;Humidity;BMP_temperature;BMP_pressure;BME280_temperature;BME280_humidity;BME280_pressure;Samples;Min_cycle;Max_cycle;Signal;HPM_P1;HPM_P2
2023/06/30 00:01:32;;;;;;;7.20;4.70;;;;;;;18.16;75.36;99643.52;103044;1255;138334;-66
2023/06/30 00:03:59;;;;;;;5.10;4.20;;;;;;;18.11;75.28;99641.48;103188;1255;97815;-66
2023/06/30 00:06:26;;;;;;;5.00;4.50;;;;;;;18.08;75.40;99641.01;103132;1255;138322;-66
2023/06/30 00:08:54;;;;;;;6.80;4.70;;;;;;;18.06;75.47;99640.45;103274;1255;108750;-66
2023/06/30 00:11:23;;;;;;;4.70;4.20;;;;;;;18.03;75.55;99639.30;103312;1255;98333;-67
2023/06/30 00:13:51;;;;;;;9.00;4.60;;;;;;;17.99;75.60;99636.10;103083;1259;138143;-67
2023/06/30 00:16:19;;;;;;;8.30;4.80;;;;;;;17.97;75.60;99636.25;103248;1254;97782;-67
2023/06/30 00:18:46;;;;;;;7.40;5.40;;;;;;;17.94;75.81;99636.80;103184;1254;138284;-67
2023/06/30 00:21:13;;;;;;;8.40;4.80;;;;;;;17.91;75.85;99635.60;103217;1254;108738;-66
2023/06/30 00:23:40;;;;;;;7.30;4.80;;;;;;;17.87;75.84;99636.08;103246;1260;97709;-66
2023/06/30 00:26:07;;;;;;;5.30;4.50;;;;;;;17.82;75.99;99633.78;103178;1254;138163;-66
2023/06/30 00:28:34;;;;;;;4.90;4.20;;;;;;;17.79;75.78;99633.98;103308;1254;97764;-66
2023/06/30 00:31:01;;;;;;;6.10;4.40;;;;;;;17.77;75.79;99631.70;103173;1254;138548;-66
2023/06/30 00:33:28;;;;;;;6.70;4.70;;;;;;;17.76;75.90;99632.61;103303;1260;108530;-67
2023/06/30 00:35:56;;;;;;;5.60;4.60;;;;;;;17.76;75.79;99632.98;103264;1259;97870;-67
2023/06/30 00:38:23;;;;;;;6.00;4.60;;;;;;;17.74;75.79;99630.98;103215;1259;107290;-66
2023/06/30 00:40:50;;;;;;;4.90;4.30;;;;;;;17.75;75.84;99629.52;103239;1254;97817;-67
2023/06/30 00:43:17;;;;;;;6.90;4.70;;;;;;;17.76;75.99;99624.03;103183;1254;138379;-66
2023/06/30 00:45:45;;;;;;;5.00;4.50;;;;;;;17.76;76.01;99623.67;103627;1257;107994;-66
2023/06/30 00:48:13;;;;;;;7.90;4.50;;;;;;;17.76;76.04;99621.19;103190;1253;138563;-67
2023/06/30 00:50:42;;;;;;;6.50;4.30;;;;;;;17.76;76.09;99621.89;103239;1254;108091;-66
2023/06/30 00:53:09;;;;;;;7.40;5.10;;;;;;;17.73;75.99;99616.13;103248;1254;97784;-67
2023/06/30 00:55:37;;;;;;;12.00;4.90;;;;;;;17.69;76.25;99619.63;103066;1260;138135;-66
2023/06/30 00:58:05;;;;;;;6.60;5.00;;;;;;;17.64;76.18;99618.70;103106;1254;108718;-65
2023/06/30 01:00:32;;;;;;;6.20;5.20;;;;;;;17.63;76.31;99614.39;103072;1254;138558;-67
2023/06/30 01:03:15;;;;;;;5.20;4.70;;;;;;;17.60;76.45;99607.91;103219;1260;107980;-66
2023/06/30 01:05:49;;;;;;;7.00;4.90;;;;;;;17.58;76.44;99602.40;103254;1255;97786;-66
2023/06/30 01:08:23;;;;;;;8.00;5.50;;;;;;;17.57;76.47;99601.65;103577;1254;138359;-67
2023/06/30 01:10:52;;;;;;;6.20;5.10;;;;;;;17.58;76.48;99598.88;103157;1254;107966;-66
2023/06/30 01:13:22;;;;;;;6.20;4.60;;;;;;;17.57;76.51;99599.86;103022;1254;138486;-67
2023/06/30 01:15:50;;;;;;;5.90;4.70;;;;;;;17.57;76.38;99599.36;103139;1253;107382;-68
2023/06/30 01:18:20;;;;;;;5.20;4.40;;;;;;;17.54;76.40;99602.88;103096;1253;138748;-67
2023/06/30 01:20:49;;;;;;;6.30;5.40;;;;;;;17.52;76.45;99602.64;103249;1254;112340;-67
2023/06/30 01:23:21;;;;;;;6.30;4.70;;;;;;;17.52;76.31;99605.13;103206;1254;108032;-67
2023/06/30 01:25:49;;;;;;;7.50;5.50;;;;;;;17.52;76.35;99602.48;103121;1254;139244;-67
2023/06/30 01:28:18;;;;;;;7.10;5.00;;;;;;;17.50;76.32;99602.77;103502;1254;107180;-67
2023/06/30 01:30:45;;;;;;;8.90;5.30;;;;;;;17.48;76.32;99597.14;103142;1254;138930;-67
2023/06/30 01:33:13;;;;;;;7.00;5.40;;;;;;;17.46;76.55;99594.85;103265;1254;111859;-67
2023/06/30 01:35:41;;;;;;;10.20;5.60;;;;;;;17.43;76.43;99594.55;104012;1254;107740;-67
2023/06/30 01:38:09;;;;;;;6.40;5.50;;;;;;;17.43;76.44;99589.62;103447;1254;138542;-67
2023/06/30 01:40:36;;;;;;;7.90;5.30;;;;;;;17.42;76.35;99585.30;103295;1254;107973;-67
2023/06/30 01:43:03;;;;;;;7.00;5.30;;;;;;;17.42;76.43;99587.73;103155;1254;138751;-67
2023/06/30 01:45:31;;;;;;;9.00;5.60;;;;;;;17.43;76.43;99584.50;103218;1259;110999;-67
2023/06/30 01:47:59;;;;;;;6.50;5.50;;;;;;;17.44;76.46;99584.23;103262;1255;109582;-67
2023/06/30 01:50:29;;;;;;;6.00;5.20;;;;;;;17.44;76.37;99584.23;103303;1254;98078;-67
2023/06/30 01:52:57;;;;;;;12.00;6.60;;;;;;;17.43;76.43;99586.80;103293;1254;107545;-67
2023/06/30 01:55:24;;;;;;;8.90;5.60;;;;;;;17.40;76.54;99589.23;103122;1258;138456;-67
2023/06/30 01:57:51;;;;;;;8.90;6.30;;;;;;;17.38;76.61;99586.77;103291;1255;111564;-67
2023/06/30 02:00:19;;;;;;;6.90;6.10;;;;;;;17.37;76.57;99586.15;103052;1260;139037;-67
2023/06/30 02:02:47;;;;;;;7.70;6.30;;;;;;;17.33;76.46;99584.38;103681;1254;97088;-67
2023/06/30 02:05:14;;;;;;;6.90;5.80;;;;;;;17.30;76.59;99588.45;103258;1254;108230;-67
2023/06/30 02:07:42;;;;;;;9.00;6.00;;;;;;;17.30;76.70;99587.52;103185;1254;139000;-67
2023/06/30 02:10:12;;;;;;;8.40;5.80;;;;;;;17.27;76.54;99584.58;103234;1259;111364;-67
2023/06/30 02:12:40;;;;;;;9.30;6.70;;;;;;;17.26;76.69;99582.03;103368;1256;138623;-67
2023/06/30 02:15:09;;;;;;;7.70;5.80;;;;;;;17.27;76.63;99584.11;103243;1256;97836;-67
2023/06/30 02:17:37;;;;;;;10.00;6.70;;;;;;;17.23;76.54;99579.05;103358;1256;106912;-66
2023/06/30 02:20:07;;;;;;;6.90;6.20;;;;;;;17.22;76.51;99580.54;103158;1255;138475;-66
2023/06/30 02:22:35;;;;;;;10.10;6.90;;;;;;;17.21;76.60;99581.64;103255;1256;111406;-66
2023/06/30 02:25:02;;;;;;;10.60;8.00;;;;;;;17.25;76.45;99582.30;103250;1256;138542;-66
2023/06/30 02:27:30;;;;;;;8.40;6.50;;;;;;;17.29;76.25;99577.82;103503;1254;97791;-66
2023/06/30 02:30:04;;;;;;;11.40;7.80;;;;;;;17.28;75.90;99577.13;103296;1256;107609;-68
2023/06/30 02:32:38;;;;;;;13.30;8.40;;;;;;;17.30;75.72;99578.20;103134;1255;98148;-66
2023/06/30 02:35:09;;;;;;;8.50;6.70;;;;;;;17.31;75.66;99574.83;103283;1259;111852;-66
2023/06/30 02:37:36;;;;;;;9.90;6.60;;;;;;;17.30;75.33;99575.40;103187;1256;138314;-66
2023/06/30 02:40:05;;;;;;;8.70;6.90;;;;;;;17.27;75.32;99573.91;103131;1256;97851;-67
2023/06/30 02:42:32;;;;;;;9.10;7.10;;;;;;;17.25;75.41;99576.84;103024;1257;139159;-67
2023/06/30 02:45:00;;;;;;;9.10;6.90;;;;;;;17.25;75.38;99578.27;103151;1255;97792;-67
2023/06/30 02:47:27;;;;;;;9.20;6.70;;;;;;;17.21;75.29;99572.52;103201;1255;111213;-66
2023/06/30 02:49:54;;;;;;;8.80;7.10;;;;;;;17.20;75.25;99570.67;103030;1255;138435;-66
2023/06/30 02:52:21;;;;;;;9.30;6.70;;;;;;;17.20;75.07;99570.65;103292;1255;97803;-66
2023/06/30 02:54:48;;;;;;;8.10;6.30;;;;;;;17.21;74.98;99565.84;103129;1255;138729;-67
2023/06/30 02:57:16;;;;;;;11.90;7.90;;;;;;;17.20;74.83;99565.52;103310;1256;97896;-67
2023/06/30 02:59:43;;;;;;;9.00;7.00;;;;;;;17.21;74.69;99565.67;103258;1255;111754;-67
2023/06/30 03:02:10;;;;;;;13.40;9.50;;;;;;;17.24;74.78;99567.80;103184;1256;138477;-67
2023/06/30 03:04:38;;;;;;;13.50;8.60;;;;;;;17.27;74.77;99567.95;103286;1256;98331;-67
2023/06/30 03:07:05;;;;;;;14.70;9.60;;;;;;;17.32;74.66;99567.41;103028;1256;138753;-67
2023/06/30 03:09:32;;;;;;;10.50;7.60;;;;;;;17.36;74.32;99566.88;103244;1256;98169;-67
2023/06/30 03:12:00;;;;;;;21.60;10.00;;;;;;;17.37;73.99;99565.44;103200;1255;110891;-67
2023/06/30 03:14:27;;;;;;;16.60;9.90;;;;;;;17.36;73.92;99566.90;103072;1254;107676;-67
2023/06/30 03:16:54;;;;;;;16.20;10.40;;;;;;;17.38;73.79;99565.90;103247;1254;97669;-67
2023/06/30 03:19:21;;;;;;;17.60;10.30;;;;;;;17.40;73.52;99567.69;103120;1254;138483;-67
2023/06/30 03:21:49;;;;;;;10.50;8.20;;;;;;;17.40;73.42;99569.61;103177;1258;97971;-67
2023/06/30 03:24:15;;;;;;;12.60;8.10;;;;;;;17.37;73.25;99570.33;103145;1254;139649;-67
2023/06/30 03:26:42;;;;;;;12.00;8.80;;;;;;;17.35;73.04;99570.98;103229;1259;106891;-67
2023/06/30 03:29:16;;;;;;;12.60;9.70;;;;;;;17.37;73.10;99571.55;103202;1254;97870;-67
2023/06/30 03:31:44;;;;;;;12.50;8.20;;;;;;;17.38;73.04;99574.52;103024;1254;138503;-67
2023/06/30 03:34:12;;;;;;;18.30;9.60;;;;;;;17.36;72.90;99575.13;103206;1254;97831;-67
2023/06/30 03:36:39;;;;;;;11.70;8.60;;;;;;;17.37;72.86;99570.16;103138;1254;138453;-67
2023/06/30 03:39:06;;;;;;;11.80;7.80;;;;;;;17.37;72.77;99568.59;103308;1254;107726;-67
2023/06/30 03:41:33;;;;;;;12.00;8.20;;;;;;;17.39;72.52;99566.55;103356;1256;97668;-67
2023/06/30 03:44:00;;;;;;;12.90;8.10;;;;;;;17.39;72.55;99564.05;103299;1254;138443;-67
2023/06/30 03:46:27;;;;;;;14.00;8.60;;;;;;;17.38;72.43;99564.61;103347;1254;97807;-67
2023/06/30 03:48:55;;;;;;;12.80;8.60;;;;;;;17.39;72.44;99565.77;103223;1254;138404;-67
2023/06/30 03:51:22;;;;;;;12.80;8.40;;;;;;;17.42;72.39;99565.98;103410;1254;107525;-67
2023/06/30 03:53:51;;;;;;;17.20;8.60;;;;;;;17.46;72.33;99561.64;103788;1254;97795;-67
2023/06/30 03:56:20;;;;;;;12.70;9.40;;;;;;;17.49;72.28;99564.05;103249;1258;138181;-67
2023/06/30 03:58:48;;;;;;;12.00;9.00;;;;;;;17.53;72.20;99559.69;103372;1255;97825;-67
2023/06/30 04:01:15;;;;;;;12.00;9.70;;;;;;;17.59;72.10;99564.56;103275;1255;138422;-67
2023/06/30 04:03:41;;;;;;;14.40;9.90;;;;;;;17.63;71.88;99565.91;103363;1255;108235;-67
2023/06/30 04:06:09;;;;;;;14.70;9.40;;;;;;;17.67;71.95;99565.07;103171;1254;138874;-68
2023/06/30 04:08:36;;;;;;;14.10;9.40;;;;;;;17.73;71.68;99566.21;103071;1255;108694;-68
2023/06/30 04:11:03;;;;;;;11.60;8.80;;;;;;;17.79;71.54;99564.05;103174;1255;97873;-67
2023/06/30 04:13:30;;;;;;;14.00;9.30;;;;;;;17.84;71.39;99566.67;103089;1259;138262;-67
2023/06/30 04:15:57;;;;;;;13.10;8.90;;;;;;;17.89;71.26;99565.23;103078;1255;107269;-68
2023/06/30 04:18:26;;;;;;;15.10;8.90;;;;;;;17.93;71.03;99563.99;102995;1255;138846;-68
2023/06/30 04:20:53;;;;;;;11.90;8.60;;;;;;;17.98;70.91;99562.60;103080;1255;107728;-68
2023/06/30 04:23:21;;;;;;;16.20;9.80;;;;;;;18.02;70.78;99561.25;103022;1259;98577;-68
2023/06/30 04:25:50;;;;;;;14.20;8.50;;;;;;;18.07;70.64;99562.67;102995;1253;138287;-68
2023/06/30 04:28:17;;;;;;;14.50;10.40;;;;;;;18.09;70.52;99560.38;103085;1260;107388;-68
2023/06/30 04:30:44;;;;;;;20.50;11.90;;;;;;;18.13;70.55;99561.50;102972;1254;138715;-68
2023/06/30 04:33:11;;;;;;;12.70;9.50;;;;;;;18.20;70.39;99564.38;103240;1254;108542;-68
2023/06/30 04:35:38;;;;;;;11.60;9.30;;;;;;;18.24;69.93;99567.25;103165;1259;98029;-68
2023/06/30 04:38:05;;;;;;;15.50;9.60;;;;;;;18.26;70.05;99565.80;103022;1260;138385;-68
2023/06/30 04:40:32;;;;;;;13.90;9.90;;;;;;;18.32;70.01;99566.27;103123;1255;108018;-68
2023/06/30 04:43:00;;;;;;;12.50;9.30;;;;;;;18.36;69.61;99567.87;103021;1254;138629;-70
2023/06/30 04:45:27;;;;;;;13.30;10.10;;;;;;;18.44;69.79;99564.09;103092;1260;108254;-65
2023/06/30 04:47:54;;;;;;;16.20;9.40;;;;;;;18.52;69.43;99563.33;103267;1255;97802;-65
2023/06/30 04:50:24;;;;;;;16.40;9.70;;;;;;;18.56;69.18;99562.83;103155;1255;138239;-65
2023/06/30 04:52:52;;;;;;;17.80;11.40;;;;;;;18.62;69.09;99561.19;103235;1255;107697;-65
2023/06/30 04:55:19;;;;;;;13.20;9.50;;;;;;;18.69;69.17;99559.05;103114;1254;138861;-67
2023/06/30 04:57:47;;;;;;;14.60;10.30;;;;;;;18.79;68.98;99560.40;103211;1255;108616;-67
2023/06/30 05:00:16;;;;;;;13.70;9.60;;;;;;;18.90;68.99;99560.11;103080;1254;138890;-69
2023/06/30 05:02:43;;;;;;;13.50;9.00;;;;;;;19.00;68.73;99560.56;103186;1255;110408;-69
2023/06/30 05:05:12;;;;;;;13.20;9.10;;;;;;;19.09;68.46;99559.18;103090;1255;107964;-67
2023/06/30 05:07:39;;;;;;;13.80;9.40;;;;;;;19.16;68.36;99559.23;103146;1255;138667;-67
2023/06/30 05:10:08;;;;;;;17.50;8.50;;;;;;;19.26;68.11;99558.87;103274;1254;108189;-66
2023/06/30 05:12:35;;;;;;;13.30;8.60;;;;;;;19.34;67.72;99555.75;103233;1254;138677;-67
2023/06/30 05:15:02;;;;;;;13.00;8.50;;;;;;;19.44;67.46;99556.20;103275;1258;111743;-67
2023/06/30 05:17:29;;;;;;;12.10;8.10;;;;;;;19.56;67.20;99561.23;103251;1258;108200;-67
2023/06/30 05:19:56;;;;;;;10.60;8.50;;;;;;;19.68;66.87;99560.61;103111;1255;138481;-66
2023/06/30 05:22:23;;;;;;;18.40;8.50;;;;;;;19.81;66.81;99558.00;103290;1259;106976;-66
2023/06/30 05:24:50;;;;;;;10.20;8.50;;;;;;;20.00;66.58;99561.05;102961;1255;138494;-66
2023/06/30 05:27:18;;;;;;;9.90;8.20;;;;;;;20.20;66.61;99561.14;103225;1255;112094;-67
2023/06/30 05:29:45;;;;;;;13.90;8.80;;;;;;;20.42;66.27;99565.98;103149;1255;107501;-64
2023/06/30 05:32:13;;;;;;;14.50;9.20;;;;;;;20.67;66.10;99567.79;103093;1260;138509;-66
2023/06/30 05:34:42;;;;;;;15.00;8.50;;;;;;;20.96;65.75;99569.72;103083;1255;108372;-68
2023/06/30 05:37:09;;;;;;;11.10;8.20;;;;;;;21.20;64.97;99568.86;102955;1254;138733;-67
2023/06/30 05:39:37;;;;;;;14.50;9.00;;;;;;;21.43;64.46;99567.63;103158;1259;111317;-67
2023/06/30 05:42:05;;;;;;;15.60;8.70;;;;;;;21.65;63.88;99565.65;103005;1255;138631;-68
2023/06/30 05:44:32;;;;;;;11.80;8.40;;;;;;;21.90;63.23;99568.16;103261;1255;97687;-67
2023/06/30 05:47:00;;;;;;;21.10;9.20;;;;;;;22.16;63.05;99563.40;103192;1255;109005;-67
2023/06/30 05:49:28;;;;;;;11.80;7.80;;;;;;;22.48;62.38;99565.88;103014;1253;137787;-68
2023/06/30 05:51:55;;;;;;;9.30;7.60;;;;;;;22.71;61.30;99563.38;103130;1258;111588;-67
2023/06/30 05:54:22;;;;;;;17.90;9.50;;;;;;;22.92;60.77;99565.34;103029;1260;137752;-68
2023/06/30 05:56:49;;;;;;;13.20;7.40;;;;;;;23.37;60.68;99561.62;103062;1255;97840;-67
2023/06/30 05:59:16;;;;;;;9.00;7.00;;;;;;;23.88;59.66;99563.17;103169;1256;107779;-67
2023/06/30 06:01:42;;;;;;;8.50;6.10;;;;;;;24.47;58.66;99558.91;103085;1256;138097;-67
2023/06/30 06:04:11;;;;;;;10.00;6.70;;;;;;;25.53;57.10;99563.48;103193;1254;112331;-67
2023/06/30 06:06:39;;;;;;;10.50;6.40;;;;;;;27.12;54.69;99558.04;103128;1254;138224;-68
2023/06/30 06:09:06;;;;;;;9.40;6.10;;;;;;;28.81;52.10;99553.94;103207;1256;97774;-67
2023/06/30 06:11:33;;;;;;;12.90;7.10;;;;;;;30.38;49.30;99544.86;103237;1254;107824;-68
2023/06/30 06:14:00;;;;;;;8.50;5.00;;;;;;;31.84;46.84;99537.28;103077;1258;137908;-66
2023/06/30 06:16:27;;;;;;;8.00;4.90;;;;;;;33.10;44.57;99536.70;103235;1258;103934;-67
2023/06/30 06:18:54;;;;;;;7.90;4.60;;;;;;;34.22;42.22;99543.54;103216;1256;137616;-67
2023/06/30 06:21:26;;;;;;;14.40;8.10;;;;;;;35.25;40.35;99540.45;103279;1253;97808;-67
2023/06/30 06:23:52;;;;;;;8.80;4.70;;;;;;;36.35;38.49;99541.63;103339;1258;99729;-67
2023/06/30 06:26:19;;;;;;;9.30;6.30;;;;;;;37.18;36.30;99540.69;103192;1256;137473;-67
2023/06/30 06:28:47;;;;;;;14.90;9.00;;;;;;;37.78;35.02;99543.23;103360;1256;103744;-67
2023/06/30 06:31:14;;;;;;;10.70;5.20;;;;;;;38.48;33.78;99545.09;103080;1260;138035;-67
2023/06/30 06:33:42;;;;;;;10.70;4.40;;;;;;;38.96;32.46;99540.82;103233;1256;97795;-70
2023/06/30 06:36:10;;;;;;;12.50;6.70;;;;;;;39.62;31.88;99534.63;103056;1258;137986;-70
2023/06/30 06:38:38;;;;;;;11.20;4.50;;;;;;;40.37;30.84;99535.48;103190;1256;97786;-69
2023/06/30 06:41:05;;;;;;;13.20;5.00;;;;;;;40.80;28.80;99539.59;103237;1256;111920;-67
2023/06/30 06:43:32;;;;;;;8.40;3.70;;;;;;;40.99;28.22;99537.04;103094;1258;137784;-70
2023/06/30 06:45:59;;;;;;;15.20;7.50;;;;;;;41.37;28.19;99535.96;103253;1256;97790;-71
2023/06/30 06:48:28;;;;;;;19.70;10.40;;;;;;;42.04;27.63;99539.45;103116;1258;137830;-68
2023/06/30 06:50:56;;;;;;;16.90;7.10;;;;;;;42.28;26.99;99542.98;103371;1254;97705;-69
2023/06/30 06:53:25;;;;;;;5.00;3.00;;;;;;;42.56;26.26;99540.34;103351;1258;103686;-67
2023/06/30 06:55:54;;;;;;;8.80;3.30;;;;;;;42.69;25.31;99543.06;103123;1255;137673;-68
2023/06/30 06:58:22;;;;;;;12.10;3.80;;;;;;;42.77;25.02;99545.25;103301;1254;97886;-68
2023/06/30 07:00:51;;;;;;;7.30;2.90;;;;;;;42.94;24.50;99545.83;103190;1256;137733;-69
2023/06/30 07:03:19;;;;;;;9.00;3.10;;;;;;;43.07;24.24;99539.31;103391;1254;97792;-68
2023/06/30 07:05:47;;;;;;;12.10;6.20;;;;;;;42.47;24.31;99536.50;103123;1258;105125;-68
2023/06/30 07:08:18;;;;;;;6.50;4.10;;;;;;;41.73;24.57;99533.23;103072;1255;137627;-68
2023/06/30 07:10:46;;;;;;;11.20;5.60;;;;;;;40.99;24.78;99528.70;103140;1258;97964;-68
2023/06/30 07:13:17;;;;;;;6.40;3.70;;;;;;;40.60;25.38;99526.38;103091;1258;137725;-67
2023/06/30 07:15:45;;;;;;;7.00;3.50;;;;;;;40.90;25.15;99530.63;103259;1257;97679;-68
2023/06/30 07:18:13;;;;;;;9.70;5.80;;;;;;;41.40;24.68;99530.27;103151;1256;138321;-68
2023/06/30 07:20:40;;;;;;;8.10;4.00;;;;;;;41.88;24.21;99530.86;103149;1254;100296;-68
2023/06/30 07:23:07;;;;;;;10.00;4.20;;;;;;;42.15;23.66;99533.33;103327;1254;98112;-68
2023/06/30 07:25:34;;;;;;;8.30;3.20;;;;;;;42.26;23.46;99536.29;103131;1256;137735;-68
2023/06/30 07:28:03;;;;;;;12.10;7.10;;;;;;;42.15;23.48;99535.83;103188;1258;97801;-68
2023/06/30 07:30:30;;;;;;;7.70;3.30;;;;;;;41.69;23.63;99532.45;103054;1256;137924;-68
2023/06/30 07:32:58;;;;;;;5.40;2.90;;;;;;;40.90;23.62;99533.84;103213;1254;99903;-68
2023/06/30 07:35:25;;;;;;;6.40;3.00;;;;;;;39.97;23.96;99527.31;103374;1258;97827;-67
2023/06/30 07:37:53;;;;;;;8.00;3.50;;;;;;;39.03;24.32;99528.52;103158;1258;137521;-67
2023/06/30 07:40:20;;;;;;;7.40;2.90;;;;;;;38.01;25.06;99531.35;103198;1256;97807;-67
2023/06/30 07:42:50;;;;;;;6.40;3.20;;;;;;;37.06;25.98;99529.80;103174;1256;137613;-68
2023/06/30 07:45:18;;;;;;;8.50;4.00;;;;;;;36.25;26.68;99527.90;103251;1255;99548;-67
2023/06/30 07:47:47;;;;;;;6.60;3.40;;;;;;;35.68;27.30;99524.98;103207;1254;97772;-68
2023/06/30 07:50:17;;;;;;;8.60;3.30;;;;;;;35.37;27.34;99519.86;103293;1256;137503;-67
2023/06/30 07:52:45;;;;;;;11.00;5.30;;;;;;;35.16;27.70;99517.30;103257;1258;97793;-67
2023/06/30 07:55:13;;;;;;;7.80;4.50;;;;;;;35.44;27.63;99516.60;103131;1260;138028;-67
2023/06/30 07:57:41;;;;;;;10.80;5.10;;;;;;;35.91;27.46;99517.85;103240;1256;100033;-67
2023/06/30 08:00:10;;;;;;;5.10;3.30;;;;;;;36.60;27.45;99515.02;103228;1254;137988;-68
2023/06/30 08:02:40;;;;;;;10.10;3.90;;;;;;;37.24;26.71;99517.07;103219;1255;98728;-67
2023/06/30 08:05:09;;;;;;;9.60;5.50;;;;;;;37.60;26.37;99518.39;103210;1259;97774;-67
2023/06/30 08:07:37;;;;;;;9.50;4.50;;;;;;;37.67;26.23;99515.63;103466;1258;138010;-67
2023/06/30 08:10:16;;;;;;;4.90;2.90;;;;;;;37.89;25.34;99512.89;103131;1255;100982;-67
2023/06/30 08:12:44;;;;;;;11.30;6.80;;;;;;;38.05;24.98;99512.65;103068;1260;137700;-67
2023/06/30 08:15:12;;;;;;;10.40;5.20;;;;;;;38.49;24.97;99508.33;103239;1259;99421;-67
2023/06/30 08:17:39;;;;;;;7.50;3.20;;;;;;;39.23;24.98;99501.09;103520;1261;97712;-67
2023/06/30 08:20:22;;;;;;;19.00;8.40;;;;;;;39.79;23.85;99497.75;103620;1255;138295;-65
2023/06/30 08:22:49;;;;;;;8.60;4.80;;;;;;;40.21;23.40;99497.05;103194;1255;100048;-66
2023/06/30 08:25:17;;;;;;;11.50;6.50;;;;;;;40.65;23.39;99498.70;103062;1259;137864;-65
2023/06/30 08:27:44;;;;;;;8.20;3.60;;;;;;;41.07;23.07;99499.70;103189;1260;100511;-67
2023/06/30 08:30:12;;;;;;;9.30;2.50;;;;;;;41.21;22.41;99493.15;102979;1254;137841;-68
2023/06/30 08:32:39;;;;;;;7.00;2.80;;;;;;;41.03;21.99;99493.08;103175;1260;103259;-67
2023/06/30 08:35:08;;;;;;;8.50;4.20;;;;;;;40.90;22.25;99490.45;103089;1255;100955;-67
2023/06/30 08:37:35;;;;;;;8.70;2.40;;;;;;;40.71;21.64;99491.03;104484;1254;137994;-67
2023/06/30 08:40:02;;;;;;;10.90;5.10;;;;;;;40.52;21.79;99493.86;104534;1255;100591;-68
2023/06/30 08:42:31;;;;;;;12.40;6.90;;;;;;;40.79;22.04;99494.20;104493;1255;137967;-68
2023/06/30 08:44:59;;;;;;;12.70;6.60;;;;;;;41.15;21.71;99492.80;104582;1255;103619;-69
2023/06/30 08:47:28;;;;;;;8.10;2.10;;;;;;;41.33;20.97;99492.51;104547;1255;100266;-69
2023/06/30 08:49:55;;;;;;;4.40;1.70;;;;;;;41.04;20.46;99497.08;104457;1254;140288;-69
2023/06/30 08:52:23;;;;;;;7.20;4.30;;;;;;;41.02;20.78;99493.83;104461;1254;100125;-70
2023/06/30 08:54:50;;;;;;;4.50;1.70;;;;;;;41.15;20.37;99487.81;103734;1254;137610;-68
2023/06/30 08:57:18;;;;;;;6.00;3.10;;;;;;;40.65;20.24;99489.55;103179;1258;102708;-69
2023/06/30 08:59:45;;;;;;;9.40;7.10;;;;;;;39.70;20.82;99484.52;103146;1258;100850;-68
2023/06/30 09:02:13;;;;;;;19.10;9.50;;;;;;;39.07;21.75;99480.20;103046;1255;139620;-68
2023/06/30 09:04:41;;;;;;;12.10;6.40;;;;;;;38.86;21.93;99476.93;103188;1255;100335;-69
2023/06/30 09:07:13;;;;;;;11.50;5.00;;;;;;;38.54;22.09;99475.86;103083;1255;138262;-69
2023/06/30 09:09:45;;;;;;;5.20;2.50;;;;;;;38.44;22.07;99475.33;103333;1255;103920;-69
2023/06/30 09:12:13;;;;;;;12.10;6.90;;;;;;;38.64;21.56;99473.59;103042;1255;138651;-69
2023/06/30 09:14:45;;;;;;;4.50;3.00;;;;;;;38.66;21.71;99469.48;103015;1260;97803;-70
2023/06/30 09:17:12;;;;;;;10.40;6.10;;;;;;;38.75;21.83;99466.44;102960;1260;99151;-68
2023/06/30 09:19:41;;;;;;;5.90;3.20;;;;;;;38.87;21.58;99469.15;103061;1256;137937;-68
2023/06/30 09:22:09;;;;;;;4.50;2.00;;;;;;;38.47;21.26;99467.98;103106;1255;104993;-68
2023/06/30 09:24:56;;;;;;;4.40;2.60;;;;;;;37.57;21.55;99467.44;104294;1255;137567;-69
2023/06/30 09:27:26;;;;;;;10.20;5.10;;;;;;;36.65;22.15;99465.75;104330;1255;97596;-69
2023/06/30 09:29:57;;;;;;;11.80;5.50;;;;;;;36.16;22.97;99463.49;104415;1258;100245;-68
2023/06/30 09:32:32;;;;;;;9.30;6.10;;;;;;;35.89;23.55;99466.13;104420;1255;96530;-68
2023/06/30 09:35:01;;;;;;;7.40;2.90;;;;;;;35.60;23.69;99463.95;104446;1255;102702;-68
2023/06/30 09:37:28;;;;;;;6.70;3.00;;;;;;;35.23;23.85;99465.39;104331;1254;138238;-68
2023/06/30 09:39:55;;;;;;;5.40;2.00;;;;;;;35.10;24.11;99466.30;104518;1256;96109;-68
2023/06/30 09:42:22;;;;;;;14.90;8.80;;;;;;;34.80;24.17;99466.96;104437;1255;140063;-68
2023/06/30 09:44:52;;;;;;;10.20;7.00;;;;;;;34.43;24.64;99467.91;104482;1256;96293;-68
2023/06/30 09:47:21;;;;;;;11.80;5.40;;;;;;;34.07;24.98;99472.13;103411;1254;103834;-67
2023/06/30 09:49:48;;;;;;;10.20;5.10;;;;;;;33.72;25.43;99471.84;103110;1255;138075;-67
2023/06/30 09:52:25;;;;;;;10.80;3.70;;;;;;;33.40;25.21;99472.39;103165;1256;97781;-67
2023/06/30 09:54:52;;;;;;;8.80;4.50;;;;;;;32.74;25.82;99468.42;103509;1256;137639;-67
2023/06/30 09:57:19;;;;;;;6.50;3.90;;;;;;;32.23;26.64;99470.89;103244;1258;97685;-67
2023/06/30 09:59:47;;;;;;;9.20;3.70;;;;;;;31.83;26.67;99471.80;103205;1254;112141;-67
2023/06/30 10:02:16;;;;;;;8.90;4.40;;;;;;;31.68;27.47;99471.67;103767;1255;138493;-67
2023/06/30 10:04:44;;;;;;;6.20;2.20;;;;;;;32.12;27.71;99474.57;103098;1253;99959;-67
2023/06/30 10:07:12;;;;;;;12.10;7.10;;;;;;;32.65;27.43;99469.28;103110;1255;137601;-71
2023/06/30 10:10:00;;;;;;;5.60;3.40;;;;;;;33.23;27.42;99464.30;103064;1260;97863;-73
2023/06/30 10:12:28;;;;;;;6.50;4.40;;;;;;;33.81;26.86;99458.48;102956;1258;137854;-71
2023/06/30 10:14:56;;;;;;;5.80;3.70;;;;;;;34.22;26.40;99447.52;103213;1253;99575;-67
2023/06/30 10:17:23;;;;;;;6.10;3.00;;;;;;;34.60;25.96;99445.16;103187;1256;97790;-70
2023/06/30 10:19:54;;;;;;;7.20;2.70;;;;;;;34.71;25.62;99442.14;102967;1255;138468;-70
2023/06/30 10:22:22;;;;;;;9.60;5.90;;;;;;;34.55;25.41;99445.27;104325;1255;95781;-70
2023/06/30 10:25:04;;;;;;;4.60;2.70;;;;;;;34.64;25.37;99442.79;103031;1259;137807;-70
2023/06/30 10:27:31;;;;;;;9.10;3.80;;;;;;;34.78;25.42;99439.20;104510;1255;100505;-69
2023/06/30 10:29:58;;;;;;;7.40;4.30;;;;;;;34.91;25.42;99442.55;104557;1254;96038;-70
2023/06/30 10:32:25;;;;;;;9.20;4.10;;;;;;;35.12;25.28;99438.46;103712;1254;99673;-70
2023/06/30 10:34:53;;;;;;;5.70;1.90;;;;;;;35.31;24.22;99436.92;103075;1259;97837;-70
2023/06/30 10:37:21;;;;;;;7.20;3.30;;;;;;;35.22;24.06;99432.08;102945;1260;137514;-70
2023/06/30 10:39:48;;;;;;;7.80;3.20;;;;;;;35.03;24.33;99430.15;103114;1260;100377;-70
2023/06/30 10:42:18;;;;;;;6.70;3.00;;;;;;;34.73;24.42;99428.54;102979;1254;137753;-70
2023/06/30 10:44:48;;;;;;;5.50;2.60;;;;;;;34.60;24.61;99430.20;103152;1260;99938;-70
2023/06/30 10:47:21;;;;;;;6.10;3.20;;;;;;;34.56;24.77;99426.88;103222;1261;97789;-69
2023/06/30 10:49:53;;;;;;;6.20;3.10;;;;;;;34.46;24.93;99425.10;103158;1254;137403;-67
2023/06/30 10:52:28;;;;;;;5.60;1.90;;;;;;;34.33;24.96;99426.11;103939;1256;100083;-67
2023/06/30 10:54:56;;;;;;;4.10;2.00;;;;;;;34.24;24.96;99427.91;103256;1260;137695;-68
2023/06/30 10:57:28;;;;;;;9.80;2.40;;;;;;;34.04;24.50;99424.27;103285;1255;100316;-67
2023/06/30 11:00:11;;;;;;;7.00;3.40;;;;;;;33.53;24.84;99426.35;103286;1257;97945;-67
2023/06/30 11:02:47;;;;;;;3.80;2.20;;;;;;;32.88;25.31;99427.11;103424;1254;106253;-67
2023/06/30 11:05:25;;;;;;;5.00;1.70;;;;;;;32.43;25.33;99420.48;103177;1255;108185;-69
2023/06/30 11:07:53;;;;;;;5.70;2.10;;;;;;;32.36;25.90;99417.64;103435;1255;137847;-67
2023/06/30 11:10:36;;;;;;;4.40;2.20;;;;;;;32.36;26.26;99415.69;103238;1255;108908;-67
2023/06/30 11:13:09;;;;;;;5.70;3.60;;;;;;;32.36;26.29;99407.10;103406;1260;140759;-67
2023/06/30 11:15:49;;;;;;;4.40;3.00;;;;;;;32.30;26.59;99408.26;103207;1255;103660;-67
2023/06/30 11:18:23;;;;;;;6.10;3.80;;;;;;;32.27;26.99;99411.36;103132;1256;137927;-66
2023/06/30 11:21:10;;;;;;;5.50;2.60;;;;;;;32.21;26.70;99405.63;103206;1255;97758;-68
2023/06/30 11:23:38;;;;;;;9.10;6.00;;;;;;;32.02;26.87;99400.76;103269;1256;107671;-68